Portada
METAR-TAF:

METAR-TAF

Aeroports :

Ciudad Obregón, Mèxic

latitud: 27-24N, longitud: 109-50W, altitud: 62 m

Observació

L'informe es va fer fa 8 hores i 59 minuts, a les 01:40 UTC
Vent 5 kt del Oest/Nord-Oest
Temperatura 24°C
Humitat 31%
Pressió 1011 hPa
Visibilitat: 16.1 km
Cel clar

METAR: MMCN 280140Z 30005KT 10SM SKC 24/06 A2986 RMK HZY

Hora: 03:39 (10:39 UTC)

Pronòstic

L'informe es va fer fa 6 hores i 36 minuts, a les 04:03 UTC
Pronòstic vàlid del 28 a les 06 UTC al 29 a les 06 UTC
Vent 5 kt del Nord-Oest
Visibilitat: 10 km
Cel clar
A partir de les 28 a les 1800 UTC
Vent 15 kt del Oest
Visibilitat: 10 km
Cel clar
A partir de les 29 a les 0300 UTC
Vent 5 kt del Nord-Oest
Visibilitat: 10 km
Cel clar

TAF: MMCN 280403Z 2806/2906 32005KT P6SM SKC FM281800 26015KT P6SM SKC FM290300 32005KT P6SM SKC

Observacions i pronòstics meteorològics de més de 4000 aeroports (METAR i TAF).

Les estacions disponibles són els punts grocs i vermells al mapa.

Posi el ratolí al punt desitjat per veure el nom de l'estació.

Feu clic per veure les observacions i els pronòstics meteorològics.

Per canviar el mapa: feu clic els botons verds amb una creu de color negre per apropar; al botó verd amb un guió per allunyar la imatge; o en les fletxes verdes per a mapes adjacents.


METAR-TAF: